Aérodrome :
LOGIN :

S'inscrire | Disclaimer

   EN    FR    IT 

 










Légende :    VFR   VFR Marginal   IFR   IFR Intensif   IFR Très Intensif
Visi : 
Plafond : 
>= 8 km
>= 3000ft
5 à 8 km
1000 à 3000 ft
1500m à 5 km
500 à 1000 ft
800 à 1500m
200 à 500 ft
< 800m
< 200 ft
Symboles :   Orages  Brouillard  Fortes neiges  Fortes précipitations  Vent > 20 kt
SIGMETs :   Divers  Orages  Givrage  Turbulence  Onde Orograph.  Cendres Volcan.







- Altitude de l'aérodrome : 433 ft
- Voir les cartes d'approche


LFOC - Chateaudun

DERNIER METAR :
  • 281000Z AUTO 22011KT 180V250 9999 BKN018 BKN030 BKN037 18/16 Q0999 TEMPO 25015G25KT 3000 -TSRA SCT012 BKN030CB

METARs EXPIRÉS :
  • 280930Z AUTO 20010KT 9999 FEW015/// SCT021/// BKN058/// ///TCU 21/16 Q0999 TEMPO 25015G25KT 3000 -TSRA SCT012 BKN030CB
  • 280900Z AUTO 22009KT 190V250 9999 BKN015 BKN021 BKN041 19/16 Q0999 NOSIG
  • 280830Z AUTO 23012KT 9999 FEW017 SCT032 BKN039 18/16 Q1000 NOSIG
  • 280800Z AUTO 22011KT 9999 SCT012/// SCT021/// BKN036/// ///TCU 19/15 Q1000 BECMG SCT030
  • 280730Z AUTO 23010KT 9999 BKN013 BKN058 18/15 Q1000 BECMG SCT030

TAF TAF LFOC
Valide du 28 à 09h jusqu'au 29 à 09h UTC


280800Z 2809/2909 24010KT 9999 BKN015 BKN030
TEMPO 2811/2903 4000 -SHRA FEW012 BKN025TCU
PROB30
TEMPO 2811/2814 25015G25KT 3000 -TSRA SCT012 BKN030CB
PROB40
TEMPO 2822/2907 25015G25KT 3000 -TSRA BKN010 BKN025CB
Pas de NOTAMs connus pour ce terrain.



MET'MAP, la Météo Aéronautique d'un coup d'oeil ! - Copyright ORBIFLY Décembre 2007 - Disclaimer

ORBIFLY MET'MAP TEAM :

Programmation & Développement : Alexandra Zaïnal
Conception & Développement : Baudouin d'Aumeries
Co-Programmation & Développement : Marc-Olivier Méhu
Soutien technique & logistique : Manuel Goepfert

Contact : metmap@orbifly.com




SOURCES & CREDITS :

   NOAA